createdAt,value
2022-10-01T00:00:52.119Z,5.00
2022-10-01T00:03:20.819Z,5.00
2022-10-01T00:05:59.335Z,5.10
2022-10-01T00:08:28.532Z,5.00
2022-10-01T00:10:56.687Z,5.00
2022-10-01T00:13:24.617Z,5.00
2022-10-01T00:15:53.269Z,5.00
2022-10-01T00:18:21.410Z,5.10
2022-10-01T00:20:50.852Z,5.20
2022-10-01T00:23:19.890Z,5.10
2022-10-01T00:25:50.304Z,5.10
2022-10-01T00:28:18.506Z,5.10
2022-10-01T00:30:49.721Z,5.00
2022-10-01T00:33:17.872Z,4.90
2022-10-01T00:35:46.172Z,4.80
2022-10-01T00:38:15.977Z,4.90
2022-10-01T00:40:43.921Z,5.00
2022-10-01T00:43:22.027Z,5.20
2022-10-01T00:45:50.305Z,5.20
2022-10-01T00:48:18.849Z,5.10
2022-10-01T00:50:49.202Z,4.90
2022-10-01T00:53:19.411Z,4.80
2022-10-01T00:55:52.101Z,4.80
2022-10-01T00:58:20.531Z,4.80
2022-10-01T01:00:48.940Z,4.70
2022-10-01T01:03:17.404Z,4.60
2022-10-01T01:05:47.870Z,4.70
2022-10-01T01:08:16.412Z,4.70
2022-10-01T01:10:51.574Z,4.60
2022-10-01T01:13:24.077Z,4.50
2022-10-01T01:15:55.879Z,4.40
2022-10-01T01:18:28.235Z,4.40
2022-10-01T01:21:04.784Z,4.40
2022-10-01T01:23:57.046Z,4.20
2022-10-01T01:26:38.856Z,4.30
2022-10-01T01:29:12.092Z,4.30
2022-10-01T01:31:41.468Z,4.30
2022-10-01T01:34:13.137Z,4.30
2022-10-01T01:36:43.821Z,4.20
2022-10-01T01:39:13.700Z,4.30
2022-10-01T01:41:43.054Z,4.30
2022-10-01T01:44:16.322Z,4.30
2022-10-01T01:46:46.579Z,4.20
2022-10-01T01:49:16.627Z,4.10
2022-10-01T01:51:47.310Z,4.10
2022-10-01T01:54:15.655Z,4.10
2022-10-01T01:56:43.595Z,4.00
2022-10-01T01:59:14.080Z,3.90
2022-10-01T02:01:42.629Z,4.00
2022-10-01T02:04:14.711Z,4.00
2022-10-01T02:06:49.374Z,3.90
2022-10-01T02:09:22.261Z,4.00
2022-10-01T02:11:58.796Z,4.20
2022-10-01T02:14:36.592Z,4.20
2022-10-01T02:17:13.287Z,4.40
2022-10-01T02:19:45.379Z,4.40
2022-10-01T02:22:14.222Z,4.40
2022-10-01T02:24:44.480Z,4.40
2022-10-01T02:27:14.458Z,4.30
2022-10-01T02:29:44.684Z,4.30
2022-10-01T02:32:13.726Z,4.20
2022-10-01T02:34:42.399Z,4.10
2022-10-01T02:37:11.538Z,4.10
2022-10-01T02:39:41.098Z,4.10
2022-10-01T02:42:11.332Z,4.00
2022-10-01T02:44:42.725Z,3.90
2022-10-01T02:47:15.047Z,4.00
2022-10-01T02:49:43.149Z,3.80
2022-10-01T02:52:14.113Z,3.70
2022-10-01T02:54:46.769Z,3.60
2022-10-01T02:57:29.773Z,3.70
2022-10-01T02:59:59.285Z,3.60
2022-10-01T03:02:29.336Z,3.50
2022-10-01T03:04:57.962Z,3.50
2022-10-01T03:07:26.256Z,3.30
2022-10-01T03:09:54.582Z,3.40
2022-10-01T03:12:23.403Z,3.40
2022-10-01T03:14:51.567Z,3.40
2022-10-01T03:17:19.819Z,3.60
2022-10-01T03:19:49.402Z,3.50
2022-10-01T03:22:22.880Z,3.40
2022-10-01T03:24:51.266Z,3.50
2022-10-01T03:27:21.314Z,3.60
2022-10-01T03:29:52.571Z,3.50
2022-10-01T03:32:20.820Z,3.60
2022-10-01T03:34:50.384Z,3.70
2022-10-01T03:37:18.516Z,3.50
2022-10-01T03:39:46.542Z,3.70
2022-10-01T03:42:15.990Z,3.60
2022-10-01T03:44:44.304Z,3.60
2022-10-01T03:47:12.840Z,3.60
2022-10-01T03:49:40.809Z,3.50
2022-10-01T03:52:10.321Z,3.50
2022-10-01T03:54:39.528Z,3.40
2022-10-01T03:57:07.801Z,3.50
2022-10-01T03:59:36.270Z,3.30
2022-10-01T04:02:04.291Z,3.30
2022-10-01T04:04:32.443Z,3.30
2022-10-01T04:07:00.493Z,3.30
2022-10-01T04:09:29.894Z,3.30
2022-10-01T04:11:58.175Z,3.20
2022-10-01T04:14:26.219Z,3.20
2022-10-01T04:16:54.220Z,3.10
2022-10-01T04:19:25.199Z,3.10
2022-10-01T04:21:53.192Z,3.20
2022-10-01T04:24:21.554Z,3.10
2022-10-01T04:26:53.191Z,3.20
2022-10-01T04:29:21.386Z,3.20
2022-10-01T04:31:49.373Z,3.30
2022-10-01T04:34:17.397Z,3.30
2022-10-01T04:36:45.475Z,3.30
2022-10-01T04:39:13.712Z,3.30
2022-10-01T04:41:41.718Z,3.50
2022-10-01T04:44:11.432Z,3.50
2022-10-01T04:46:40.025Z,3.50
2022-10-01T04:49:08.172Z,3.60
2022-10-01T04:51:36.474Z,3.50
2022-10-01T04:54:04.772Z,3.60
2022-10-01T04:56:32.794Z,3.60
2022-10-01T04:59:00.815Z,3.60
2022-10-01T05:01:31.269Z,3.60
2022-10-01T05:03:59.671Z,3.80
2022-10-01T05:06:27.862Z,3.70
2022-10-01T05:08:56.039Z,3.80
2022-10-01T05:11:23.988Z,3.80
2022-10-01T05:13:52.165Z,3.70
2022-10-01T05:16:20.320Z,3.70
2022-10-01T05:18:49.946Z,3.70
2022-10-01T05:21:18.123Z,3.70
2022-10-01T05:23:46.151Z,3.90
2022-10-01T05:26:14.796Z,3.90
2022-10-01T05:28:44.519Z,3.90
2022-10-01T05:31:12.718Z,4.00
2022-10-01T05:33:41.912Z,4.20
2022-10-01T05:36:11.308Z,4.10
2022-10-01T05:38:39.501Z,4.20
2022-10-01T05:41:07.628Z,4.20
2022-10-01T05:43:36.485Z,4.40
2022-10-01T05:46:05.418Z,4.50
2022-10-01T05:48:37.095Z,4.60
2022-10-01T05:51:07.998Z,4.70
2022-10-01T05:53:38.679Z,4.80
2022-10-01T05:56:07.298Z,4.90
2022-10-01T05:58:35.593Z,5.10
2022-10-01T06:01:04.207Z,5.30
2022-10-01T06:03:32.248Z,5.50
2022-10-01T06:06:00.913Z,5.80
2022-10-01T06:08:28.864Z,6.10
2022-10-01T06:11:01.887Z,6.30
2022-10-01T06:13:29.958Z,6.50
2022-10-01T06:15:57.878Z,6.70
2022-10-01T06:18:27.495Z,6.90
2022-10-01T06:20:55.581Z,7.20
2022-10-01T06:23:23.487Z,7.50
2022-10-01T06:25:51.564Z,7.80
2022-10-01T06:28:21.098Z,8.00
2022-10-01T06:30:50.070Z,8.20
2022-10-01T06:33:18.292Z,8.50
2022-10-01T06:35:46.960Z,8.90
2022-10-01T06:38:16.168Z,9.40
2022-10-01T06:40:44.173Z,9.80
2022-10-01T06:43:12.122Z,10.10
2022-10-01T06:45:42.586Z,10.60
2022-10-01T06:48:14.749Z,11.20
2022-10-01T06:50:43.402Z,11.70
2022-10-01T06:53:11.799Z,11.70
2022-10-01T06:55:39.809Z,11.60
2022-10-01T06:58:08.688Z,11.50
2022-10-01T07:00:39.064Z,11.40
2022-10-01T07:03:11.057Z,11.30
2022-10-01T07:05:39.451Z,11.20
2022-10-01T07:08:07.904Z,11.10
2022-10-01T07:10:36.501Z,11.00
2022-10-01T07:13:08.680Z,11.00
2022-10-01T07:15:36.628Z,10.90
2022-10-01T07:18:04.955Z,11.00
2022-10-01T07:20:39.537Z,11.00
2022-10-01T07:23:08.650Z,11.00
2022-10-01T07:25:38.652Z,11.10
2022-10-01T07:28:07.837Z,11.20
2022-10-01T07:30:36.089Z,11.40
2022-10-01T07:33:04.076Z,11.70
2022-10-01T07:35:32.030Z,12.30
2022-10-01T07:38:06.123Z,13.10
2022-10-01T07:40:34.084Z,14.00
2022-10-01T07:43:02.191Z,14.50
2022-10-01T07:45:30.226Z,14.60
2022-10-01T07:47:59.005Z,14.40
2022-10-01T07:50:27.576Z,14.00
2022-10-01T07:52:56.294Z,13.90
2022-10-01T07:55:27.510Z,13.80
2022-10-01T07:57:56.137Z,13.70
2022-10-01T08:00:24.880Z,13.70
2022-10-01T08:02:53.674Z,13.80
2022-10-01T08:05:22.523Z,13.80
2022-10-01T08:07:51.143Z,13.50
2022-10-01T08:10:20.724Z,13.10
2022-10-01T08:12:50.347Z,12.80
2022-10-01T08:15:18.944Z,12.60
2022-10-01T08:17:47.094Z,12.50
2022-10-01T08:20:15.825Z,12.40
2022-10-01T08:22:43.920Z,12.40
2022-10-01T08:25:12.191Z,12.40
2022-10-01T08:27:40.236Z,12.40
2022-10-01T08:30:10.498Z,12.30
2022-10-01T08:32:38.794Z,12.20
2022-10-01T08:35:07.098Z,12.10
2022-10-01T08:37:35.167Z,12.00
2022-10-01T08:40:04.112Z,11.90
2022-10-01T08:42:43.132Z,11.70
2022-10-01T08:45:14.603Z,11.70
2022-10-01T08:47:43.979Z,11.60
2022-10-01T08:50:16.977Z,11.50
2022-10-01T08:52:50.847Z,11.50
2022-10-01T08:55:20.911Z,11.50
2022-10-01T08:57:50.336Z,11.50
2022-10-01T09:00:20.448Z,11.50
2022-10-01T09:02:49.428Z,11.40
2022-10-01T09:05:24.994Z,11.30
2022-10-01T09:07:58.710Z,11.30
2022-10-01T09:10:33.258Z,11.20
2022-10-01T09:13:18.933Z,11.20
2022-10-01T09:15:52.062Z,11.10
2022-10-01T09:18:23.359Z,11.10
2022-10-01T09:20:54.069Z,11.00
2022-10-01T09:23:27.276Z,11.00
2022-10-01T09:25:57.369Z,11.00
2022-10-01T09:28:26.436Z,11.00
2022-10-01T09:30:57.959Z,11.00
2022-10-01T09:33:30.559Z,11.10
2022-10-01T09:36:04.106Z,11.10
2022-10-01T09:38:35.407Z,11.20
2022-10-01T09:41:04.157Z,11.30
2022-10-01T09:43:32.846Z,11.40
2022-10-01T09:46:04.576Z,11.50
2022-10-01T09:48:35.831Z,11.60
2022-10-01T09:51:08.355Z,11.80
2022-10-01T09:53:41.213Z,11.90
2022-10-01T09:56:15.188Z,12.10
2022-10-01T09:58:47.804Z,12.30
2022-10-01T10:01:23.180Z,12.50
2022-10-01T10:03:55.093Z,12.70
2022-10-01T10:06:24.087Z,12.70
2022-10-01T10:08:52.720Z,12.80
2022-10-01T10:11:23.243Z,13.00
2022-10-01T10:13:51.763Z,13.00
2022-10-01T10:16:26.111Z,13.00
2022-10-01T10:18:56.804Z,13.20
2022-10-01T10:21:27.622Z,13.30
2022-10-01T10:23:56.678Z,13.40
2022-10-01T10:26:28.630Z,13.60
2022-10-01T10:28:57.620Z,13.80
2022-10-01T10:31:28.451Z,14.00
2022-10-01T10:34:01.890Z,14.20
2022-10-01T10:36:30.654Z,14.40
2022-10-01T10:38:59.990Z,14.70
2022-10-01T10:41:28.988Z,14.90
2022-10-01T10:43:58.298Z,14.60
2022-10-01T10:46:31.575Z,14.30
2022-10-01T10:49:06.090Z,14.00
2022-10-01T10:51:51.476Z,13.90
2022-10-01T10:54:27.008Z,13.70
2022-10-01T10:56:56.031Z,13.50
2022-10-01T10:59:24.000Z,13.40
2022-10-01T11:01:53.694Z,13.40
2022-10-01T11:04:26.331Z,13.30
2022-10-01T11:06:58.684Z,13.10
2022-10-01T11:09:29.195Z,12.90
2022-10-01T11:12:03.071Z,12.70
2022-10-01T11:14:35.423Z,12.40
2022-10-01T11:17:18.245Z,12.10
2022-10-01T11:19:54.512Z,12.00
2022-10-01T11:22:28.349Z,11.80
2022-10-01T11:25:14.873Z,11.70
2022-10-01T11:27:48.587Z,11.60
2022-10-01T11:30:20.176Z,11.60
2022-10-01T11:32:53.830Z,11.50
2022-10-01T11:35:49.382Z,11.40
2022-10-01T11:38:25.336Z,11.30
2022-10-01T11:40:55.774Z,11.20
2022-10-01T11:43:25.727Z,11.10
2022-10-01T11:45:56.506Z,11.10
2022-10-01T11:48:29.924Z,10.90
2022-10-01T11:51:01.573Z,10.80
2022-10-01T11:53:33.554Z,10.70
2022-10-01T11:56:20.868Z,10.60
2022-10-01T11:58:52.799Z,10.50
2022-10-01T12:01:26.516Z,10.40
2022-10-01T12:04:02.014Z,10.30
2022-10-01T12:06:34.072Z,10.20
2022-10-01T12:09:06.453Z,10.10
2022-10-01T12:11:38.526Z,10.10
2022-10-01T12:14:10.654Z,10.00
2022-10-01T12:16:43.176Z,9.90
2022-10-01T12:19:17.546Z,9.90
2022-10-01T12:21:48.489Z,9.80
2022-10-01T12:24:17.867Z,9.80
2022-10-01T12:26:50.080Z,9.70
2022-10-01T12:29:20.321Z,9.70
2022-10-01T12:31:52.761Z,9.70
2022-10-01T12:34:29.839Z,9.70
2022-10-01T12:37:07.494Z,9.70
2022-10-01T12:39:42.038Z,9.70
2022-10-01T12:42:31.311Z,9.70
2022-10-01T12:45:04.247Z,9.60
2022-10-01T12:47:38.339Z,9.70
2022-10-01T12:50:14.840Z,9.60
2022-10-01T12:52:45.059Z,9.60
2022-10-01T12:55:19.451Z,9.60
2022-10-01T12:57:51.583Z,9.60
2022-10-01T13:00:20.468Z,9.60
2022-10-01T13:03:03.004Z,9.60
2022-10-01T13:05:38.897Z,9.60
2022-10-01T13:08:21.428Z,9.60
2022-10-01T13:10:57.608Z,9.60
2022-10-01T13:13:27.137Z,9.60
2022-10-01T13:16:00.116Z,9.60
2022-10-01T13:18:32.730Z,9.60
2022-10-01T13:21:07.688Z,9.50
2022-10-01T13:23:40.064Z,9.50
2022-10-01T13:26:11.003Z,9.50
2022-10-01T13:28:47.715Z,9.50
2022-10-01T13:31:19.436Z,9.50
2022-10-01T13:33:55.708Z,9.50
2022-10-01T13:36:32.821Z,9.50
2022-10-01T13:39:01.335Z,9.50
2022-10-01T13:41:31.080Z,9.50
2022-10-01T13:44:00.509Z,9.60
2022-10-01T13:46:31.578Z,9.60
2022-10-01T13:49:05.982Z,9.60
2022-10-01T13:51:42.406Z,9.60
2022-10-01T13:54:18.745Z,9.60
2022-10-01T13:56:47.283Z,9.60
2022-10-01T13:59:27.172Z,9.60
2022-10-01T14:01:55.752Z,9.50
2022-10-01T14:04:26.812Z,9.50
2022-10-01T14:06:58.609Z,9.40
2022-10-01T14:09:28.659Z,9.40
2022-10-01T14:12:16.562Z,9.40
2022-10-01T14:15:07.104Z,9.40
2022-10-01T14:17:36.332Z,9.50
2022-10-01T14:20:05.181Z,9.50
2022-10-01T14:22:40.293Z,9.50
2022-10-01T14:25:23.675Z,9.50
2022-10-01T14:27:57.460Z,9.50
2022-10-01T14:30:26.382Z,9.50
2022-10-01T14:33:09.093Z,9.50
2022-10-01T14:35:40.409Z,9.50
2022-10-01T14:38:14.874Z,9.40
2022-10-01T14:40:43.838Z,9.40
2022-10-01T14:43:20.587Z,9.40
2022-10-01T14:45:55.441Z,9.30
2022-10-01T14:48:24.416Z,9.40
2022-10-01T14:50:53.979Z,9.40
2022-10-01T14:53:24.935Z,9.40
2022-10-01T14:55:54.782Z,9.40
2022-10-01T14:58:30.009Z,9.40
2022-10-01T15:01:03.434Z,9.40
2022-10-01T15:03:47.350Z,9.40
2022-10-01T15:06:22.334Z,9.30
2022-10-01T15:08:53.660Z,9.30
2022-10-01T15:24:00.479Z,9.30
2022-10-01T15:34:01.456Z,9.30
2022-10-01T15:36:33.544Z,9.30
2022-10-01T15:39:30.618Z,9.20
2022-10-01T15:42:31.220Z,9.20
2022-10-01T15:45:49.706Z,9.30
2022-10-01T15:52:09.217Z,9.20
2022-10-01T15:54:53.310Z,9.20
2022-10-01T15:57:43.614Z,9.20
2022-10-01T16:03:22.068Z,9.30
2022-10-01T16:06:22.958Z,9.30
2022-10-01T16:09:07.083Z,9.30
2022-10-01T16:11:55.362Z,9.30
2022-10-01T16:14:37.967Z,9.20
2022-10-01T16:17:47.721Z,9.30
2022-10-01T16:20:52.392Z,9.20
2022-10-01T16:26:57.943Z,9.20
2022-10-01T16:29:33.037Z,9.20
2022-10-01T16:32:04.490Z,9.20
2022-10-01T16:34:35.127Z,9.20
2022-10-01T16:37:12.388Z,9.20
2022-10-01T16:39:45.419Z,9.20
2022-10-01T16:42:26.077Z,9.20
2022-10-01T16:44:55.804Z,9.20
2022-10-01T16:47:31.365Z,9.30
2022-10-01T16:50:01.112Z,9.20
2022-10-01T16:52:44.582Z,9.30
2022-10-01T16:59:11.499Z,9.20
2022-10-01T17:02:06.245Z,9.20
2022-10-01T17:04:38.119Z,9.20
2022-10-01T17:07:35.764Z,9.20
2022-10-01T17:10:18.647Z,9.30
2022-10-01T17:12:59.752Z,9.30
2022-10-01T17:15:43.373Z,9.30
2022-10-01T17:24:04.874Z,9.20
2022-10-01T17:29:45.489Z,9.10
2022-10-01T17:32:26.694Z,9.10
2022-10-01T17:38:16.356Z,9.10
2022-10-01T17:43:46.221Z,9.00
2022-10-01T17:46:30.251Z,9.00
2022-10-01T17:52:20.103Z,9.00
2022-10-01T18:06:46.856Z,9.10
2022-10-01T18:09:53.755Z,9.20
2022-10-01T18:12:44.247Z,9.20
2022-10-01T18:15:35.053Z,9.20
2022-10-01T18:19:51.282Z,9.20
2022-10-01T18:24:37.833Z,9.20
2022-10-01T18:27:29.334Z,9.20
2022-10-01T18:30:16.814Z,9.10
2022-10-01T18:33:01.603Z,9.10
2022-10-01T18:36:04.963Z,9.00
2022-10-01T18:38:50.822Z,9.10
2022-10-01T18:41:31.315Z,9.10
2022-10-01T18:47:15.946Z,9.10
2022-10-01T19:00:23.491Z,9.10
2022-10-01T19:07:14.192Z,9.20
2022-10-01T19:13:38.153Z,9.40
2022-10-01T19:17:14.855Z,9.40
2022-10-01T19:23:34.915Z,9.50
2022-10-01T19:26:14.653Z,9.50
2022-10-01T19:29:09.172Z,9.50
2022-10-01T19:35:04.258Z,9.40
2022-10-01T19:37:42.393Z,9.50
2022-10-01T19:43:48.402Z,9.40
2022-10-01T19:46:35.830Z,9.30
2022-10-01T19:49:26.811Z,9.30
2022-10-01T19:55:00.449Z,9.10
2022-10-01T20:01:09.190Z,9.00
2022-10-01T20:22:45.953Z,8.80
2022-10-01T20:25:19.200Z,8.80
2022-10-01T20:27:56.111Z,8.80
2022-10-01T20:30:55.747Z,8.80
2022-10-01T20:36:43.693Z,8.70
2022-10-01T20:42:59.387Z,8.60
2022-10-01T20:45:32.137Z,8.60
2022-10-01T20:48:57.535Z,8.60
2022-10-01T20:52:15.850Z,8.70
2022-10-01T20:55:09.071Z,8.70
2022-10-01T20:57:42.274Z,8.60
2022-10-01T21:00:21.520Z,8.60
2022-10-01T21:05:56.821Z,8.50
2022-10-01T21:08:57.664Z,8.60
2022-10-01T21:35:17.558Z,9.00
2022-10-01T21:45:12.058Z,8.90
2022-10-01T22:01:48.568Z,9.00
2022-10-01T22:04:52.355Z,9.10
2022-10-01T22:10:14.806Z,9.20
2022-10-01T22:13:00.150Z,9.20
2022-10-01T22:15:54.417Z,9.20
2022-10-01T22:24:50.527Z,9.40
2022-10-01T22:27:21.693Z,9.40
2022-10-01T22:30:02.666Z,9.40
2022-10-01T22:32:52.408Z,9.40
2022-10-01T22:45:06.241Z,9.60
2022-10-01T22:47:49.736Z,9.60
2022-10-01T22:50:31.464Z,9.50
2022-10-01T22:55:59.737Z,9.50
2022-10-01T22:58:53.356Z,9.60
2022-10-01T23:11:19.828Z,9.60
2022-10-01T23:20:11.606Z,9.70
2022-10-01T23:22:56.510Z,9.70
2022-10-01T23:25:31.169Z,9.70
2022-10-01T23:28:10.144Z,9.70
2022-10-01T23:30:49.089Z,9.70
2022-10-01T23:33:27.351Z,9.70
2022-10-01T23:36:03.381Z,9.60
2022-10-01T23:38:53.473Z,9.60
2022-10-01T23:41:46.643Z,9.50
2022-10-01T23:50:20.897Z,9.50
2022-10-01T23:52:54.173Z,9.60
2022-10-01T23:55:42.864Z,9.60
2022-10-01T23:58:26.038Z,9.70
